Cheikh El Mokrani — C6WD5 — position and weather

sailwx.info

Track history (hours):
 
Tides and Currents Weather Stations Pressure Air Temp Water Temp Dewpoint Dewpoint Depression Visibility Wind Speed Wind Dir Waves Ship Positions

Cheikh El Mokrani

Last reported at 2016-May-05 14:30 UTC. Time now 2016-May-06 11:07 UTC.
Position N 37°23' E 006°58'.

Length 220 m; draft 8.1 m.

Type: Ship (hazmat cat D). MMSI: 309979000.

Date/timePositionNaut miles runAvg speedWind from/ knotsBaromVisibWave heightAir tempDewpointWater temp
2016-May-05 14:30N 37°23' E 006°58'1914.9
2016-May-05 13:14N 37°05' E 006°59'912.2
2016-May-05 12:31N 36°56' E 006°57'338 7.3
2016-May-03 14:07N 42°25' E 005°17'4516.3
2016-May-03 11:23N 43°08' E 005°01'1214.1
2016-May-03 10:33N 43°20' E 004°58'9 8.5
2016-May-03 09:33N 43°27' E 004°51'0 0.0
2016-May-02 22:26N 43°27' E 004°51'0 0.0
2016-May-02 07:33N 43°27' E 004°51'1 1.1
2016-May-02 06:33N 43°26' E 004°52'8 7.9
2016-May-02 05:33N 43°20' E 004°59'5 5.4
2016-May-02 04:33N 43°15' E 005°02'6 5.2
2016-May-02 03:29N 43°10' E 005°04'4 3.8
2016-May-02 02:28N 43°06' E 005°05'14 6.6
2016-May-02 00:19N 42°53' E 005°11'  
2016-Apr-27 04:08N 37°24' E 005°40'1016.5
2016-Apr-27 03:30N 37°27' E 005°28'5117.2
2016-Apr-27 00:33N 37°42' E 004°26'1816.0
2016-Apr-26 23:28N 37°47' E 004°05'1415.8
2016-Apr-26 22:33N 37°51' E 003°48'1615.8
2016-Apr-26 21:33N 37°56' E 003°29'1916.1
2016-Apr-26 20:21N 38°01' E 003°05'1316.3
2016-Apr-26 19:32N 38°05' E 002°49'9816.2
2016-Apr-26 13:28N 38°43' E 000°53'1816.2
2016-Apr-26 12:23N 38°55' E 000°38'4715.7
2016-Apr-26 09:24N 39°30' W 000°03'1012.3
2016-Apr-26 08:33N 39°38' W 000°12'1 0.1
2016-Apr-26 01:33N 39°38' W 000°13'0 0.0
2016-Apr-26 00:33N 39°38' W 000°13'0 0.0
2016-Apr-25 23:33N 39°38' W 000°13'0 0.0
2016-Apr-25 22:33N 39°38' W 000°13'0 0.0
2016-Apr-25 21:33N 39°38' W 000°13'0 0.0
2016-Apr-25 20:33N 39°38' W 000°13'0 0.0
2016-Apr-25 19:33N 39°38' W 000°13'0 0.0
2016-Apr-25 18:33N 39°38' W 000°13'0 0.0
2016-Apr-25 17:33N 39°38' W 000°13'0 0.0
2016-Apr-25 16:33N 39°38' W 000°13'0 0.0
2016-Apr-25 15:33N 39°38' W 000°13'0 0.0
2016-Apr-25 14:33N 39°38' W 000°13'  
Track history (hours):
 
Tides and Currents Weather Stations Pressure Air Temp Water Temp Dewpoint Dewpoint Depression Visibility Wind Speed Wind Dir Waves Ship Positions

Cheikh El Mokrani

Last reported at 2016-May-05 14:30 UTC. Time now 2016-May-06 11:07 UTC.
Position N 37°23' E 006°58'.

Length 220 m; draft 8.1 m.

Type: Ship (hazmat cat D). MMSI: 309979000.

Date/timePositionNaut miles runAvg speedWind from/ knotsBaromVisibWave heightAir tempDewpointWater temp
2016-May-05 14:30N 37°23' E 006°58'1914.9
2016-May-05 13:14N 37°05' E 006°59'912.2
2016-May-05 12:31N 36°56' E 006°57'338 7.3
2016-May-03 14:07N 42°25' E 005°17'4516.3
2016-May-03 11:23N 43°08' E 005°01'1214.1
2016-May-03 10:33N 43°20' E 004°58'9 8.5
2016-May-03 09:33N 43°27' E 004°51'0 0.0
2016-May-02 22:26N 43°27' E 004°51'0 0.0
2016-May-02 07:33N 43°27' E 004°51'1 1.1
2016-May-02 06:33N 43°26' E 004°52'8 7.9
2016-May-02 05:33N 43°20' E 004°59'5 5.4
2016-May-02 04:33N 43°15' E 005°02'6 5.2
2016-May-02 03:29N 43°10' E 005°04'4 3.8
2016-May-02 02:28N 43°06' E 005°05'14 6.6
2016-May-02 00:19N 42°53' E 005°11'  
2016-Apr-27 04:08N 37°24' E 005°40'1016.5
2016-Apr-27 03:30N 37°27' E 005°28'5117.2
2016-Apr-27 00:33N 37°42' E 004°26'1816.0
2016-Apr-26 23:28N 37°47' E 004°05'1415.8
2016-Apr-26 22:33N 37°51' E 003°48'1615.8
2016-Apr-26 21:33N 37°56' E 003°29'1916.1
2016-Apr-26 20:21N 38°01' E 003°05'1316.3
2016-Apr-26 19:32N 38°05' E 002°49'9816.2
2016-Apr-26 13:28N 38°43' E 000°53'1816.2
2016-Apr-26 12:23N 38°55' E 000°38'4715.7
2016-Apr-26 09:24N 39°30' W 000°03'1012.3
2016-Apr-26 08:33N 39°38' W 000°12'1 0.1
2016-Apr-26 01:33N 39°38' W 000°13'0 0.0
2016-Apr-26 00:33N 39°38' W 000°13'0 0.0
2016-Apr-25 23:33N 39°38' W 000°13'0 0.0
2016-Apr-25 22:33N 39°38' W 000°13'0 0.0
2016-Apr-25 21:33N 39°38' W 000°13'0 0.0
2016-Apr-25 20:33N 39°38' W 000°13'0 0.0
2016-Apr-25 19:33N 39°38' W 000°13'0 0.0
2016-Apr-25 18:33N 39°38' W 000°13'0 0.0
2016-Apr-25 17:33N 39°38' W 000°13'0 0.0
2016-Apr-25 16:33N 39°38' W 000°13'0 0.0
2016-Apr-25 15:33N 39°38' W 000°13'0 0.0
2016-Apr-25 14:33N 39°38' W 000°13'  

Dump ship's entire track history